createdAt,value
2023-05-15T00:01:12.031Z,0.40
2023-05-15T00:03:39.836Z,0.70
2023-05-15T00:06:07.561Z,1.30
2023-05-15T00:08:35.239Z,1.35
2023-05-15T00:11:02.977Z,1.20
2023-05-15T00:13:30.897Z,1.13
2023-05-15T00:16:00.052Z,1.20
2023-05-15T00:18:27.900Z,1.33
2023-05-15T00:20:55.716Z,0.65
2023-05-15T00:23:23.424Z,0.93
2023-05-15T00:25:51.168Z,1.17
2023-05-15T00:28:18.811Z,1.15
2023-05-15T00:30:46.487Z,0.88
2023-05-15T00:33:15.664Z,1.13
2023-05-15T00:35:43.849Z,1.15
2023-05-15T00:38:12.899Z,1.10
2023-05-15T00:40:42.395Z,1.65
2023-05-15T00:43:11.033Z,1.50
2023-05-15T00:45:39.980Z,1.27
2023-05-15T00:48:08.776Z,1.50
2023-05-15T00:50:38.116Z,0.82
2023-05-15T00:53:06.431Z,1.45
2023-05-15T00:55:34.847Z,1.30
2023-05-15T00:58:02.594Z,1.23
2023-05-15T01:00:32.292Z,0.88
2023-05-15T01:03:00.787Z,0.75
2023-05-15T01:05:28.848Z,1.20
2023-05-15T01:08:07.828Z,1.33
2023-05-15T01:10:36.157Z,0.63
2023-05-15T01:13:04.194Z,2.65
2023-05-15T01:15:31.901Z,1.00
2023-05-15T01:17:59.773Z,1.38
2023-05-15T01:20:27.888Z,1.10
2023-05-15T01:23:07.196Z,1.98
2023-05-15T01:25:58.762Z,1.27
2023-05-15T01:28:30.488Z,0.90
2023-05-15T01:30:59.022Z,1.75
2023-05-15T01:33:29.842Z,1.67
2023-05-15T01:36:00.495Z,1.00
2023-05-15T01:38:31.762Z,1.35
2023-05-15T01:41:03.134Z,1.38
2023-05-15T01:43:33.323Z,1.45
2023-05-15T01:46:02.610Z,1.13
2023-05-15T01:48:31.286Z,1.42
2023-05-15T01:51:02.305Z,1.67
2023-05-15T01:53:31.502Z,1.38
2023-05-15T01:55:59.662Z,2.30
2023-05-15T01:58:28.525Z,2.15
2023-05-15T02:00:57.656Z,1.20
2023-05-15T02:03:25.952Z,2.20
2023-05-15T02:05:56.582Z,1.35
2023-05-15T02:08:25.734Z,2.28
2023-05-15T02:10:53.835Z,1.30
2023-05-15T02:13:22.319Z,1.77
2023-05-15T02:15:50.060Z,1.75
2023-05-15T02:18:19.154Z,1.73
2023-05-15T02:20:46.825Z,2.20
2023-05-15T02:23:16.376Z,1.52
2023-05-15T02:25:49.200Z,1.75
2023-05-15T02:28:18.617Z,2.50
2023-05-15T02:30:50.657Z,0.95
2023-05-15T02:33:23.051Z,1.77
2023-05-15T02:35:54.096Z,1.83
2023-05-15T02:38:25.512Z,1.70
2023-05-15T02:40:56.546Z,1.70
2023-05-15T02:43:24.335Z,2.78
2023-05-15T02:45:52.335Z,1.20
2023-05-15T02:48:21.497Z,1.88
2023-05-15T02:50:49.212Z,2.83
2023-05-15T02:53:16.843Z,2.70
2023-05-15T02:55:44.597Z,1.52
2023-05-15T02:58:12.368Z,1.45
2023-05-15T03:00:40.089Z,2.72
2023-05-15T03:03:07.763Z,2.30
2023-05-15T03:05:36.884Z,2.17
2023-05-15T03:08:04.637Z,1.30
2023-05-15T03:10:32.401Z,2.00
2023-05-15T03:13:00.156Z,2.63
2023-05-15T03:15:28.107Z,2.38
2023-05-15T03:17:55.955Z,2.13
2023-05-15T03:20:23.639Z,2.47
2023-05-15T03:22:52.735Z,1.85
2023-05-15T03:25:21.092Z,1.42
2023-05-15T03:27:48.781Z,2.00
2023-05-15T03:30:16.461Z,2.40
2023-05-15T03:32:44.155Z,2.17
2023-05-15T03:35:11.864Z,1.75
2023-05-15T03:37:39.532Z,2.35
2023-05-15T03:40:09.508Z,2.15
2023-05-15T03:42:39.074Z,2.78
2023-05-15T03:45:07.358Z,3.22
2023-05-15T03:47:35.074Z,2.13
2023-05-15T03:50:02.769Z,2.35
2023-05-15T03:52:34.212Z,2.97
2023-05-15T03:55:02.152Z,1.73
2023-05-15T03:57:32.169Z,2.70
2023-05-15T03:59:59.889Z,1.85
2023-05-15T04:02:27.647Z,2.63
2023-05-15T04:04:55.390Z,2.90
2023-05-15T04:07:23.093Z,2.50
2023-05-15T04:09:50.805Z,2.65
2023-05-15T04:12:18.549Z,2.40
2023-05-15T04:14:47.612Z,2.78
2023-05-15T04:17:15.327Z,3.28
2023-05-15T04:19:43.190Z,1.77
2023-05-15T04:22:10.876Z,2.63
2023-05-15T04:24:38.552Z,2.83
2023-05-15T04:27:06.885Z,2.90
2023-05-15T04:29:34.668Z,2.63
2023-05-15T04:32:03.734Z,3.10
2023-05-15T04:34:31.413Z,2.72
2023-05-15T04:36:59.096Z,3.53
2023-05-15T04:39:26.764Z,2.90
2023-05-15T04:41:54.400Z,2.50
2023-05-15T04:44:22.057Z,3.47
2023-05-15T04:46:49.727Z,3.70
2023-05-15T04:49:18.735Z,2.72
2023-05-15T04:51:46.408Z,2.38
2023-05-15T04:54:14.072Z,3.88
2023-05-15T04:56:41.716Z,3.30
2023-05-15T04:59:09.734Z,3.17
2023-05-15T05:01:37.865Z,3.40
2023-05-15T05:04:05.564Z,3.35
2023-05-15T05:06:34.639Z,2.25
2023-05-15T05:09:02.336Z,2.35
2023-05-15T05:11:30.016Z,1.60
2023-05-15T05:13:57.709Z,2.28
2023-05-15T05:16:25.531Z,3.13
2023-05-15T05:18:53.234Z,3.17
2023-05-15T05:21:20.920Z,2.58
2023-05-15T05:23:50.048Z,3.30
2023-05-15T05:26:17.725Z,3.40
2023-05-15T05:28:45.383Z,4.65
2023-05-15T05:31:13.081Z,2.92
2023-05-15T05:33:40.810Z,3.42
2023-05-15T05:36:08.638Z,1.92
2023-05-15T05:38:37.197Z,3.33
2023-05-15T05:41:06.282Z,3.03
2023-05-15T05:43:33.981Z,3.08
2023-05-15T05:46:02.991Z,4.60
2023-05-15T05:48:30.850Z,4.22
2023-05-15T05:50:58.845Z,3.75
2023-05-15T05:53:26.539Z,2.97
2023-05-15T05:55:54.298Z,3.58
2023-05-15T05:58:26.097Z,2.47
2023-05-15T06:00:54.204Z,4.55
2023-05-15T06:03:22.107Z,2.83
2023-05-15T06:05:49.845Z,3.63
2023-05-15T06:08:17.817Z,2.28
2023-05-15T06:10:45.538Z,3.80
2023-05-15T06:13:14.731Z,2.83
2023-05-15T06:15:45.662Z,4.22
2023-05-15T06:18:13.402Z,2.95
2023-05-15T06:20:42.644Z,3.47
2023-05-15T06:23:10.390Z,3.97
2023-05-15T06:25:38.040Z,3.08
2023-05-15T06:28:05.896Z,4.35
2023-05-15T06:30:33.606Z,2.90
2023-05-15T06:33:02.687Z,3.25
2023-05-15T06:35:30.487Z,4.78
2023-05-15T06:37:58.586Z,3.25
2023-05-15T06:40:26.966Z,3.88
2023-05-15T06:42:54.881Z,4.00
2023-05-15T06:45:22.823Z,4.85
2023-05-15T06:47:50.565Z,3.42
2023-05-15T06:50:19.661Z,7.75
2023-05-15T06:52:47.313Z,5.35
2023-05-15T06:55:14.975Z,4.57
2023-05-15T06:57:42.636Z,3.80
2023-05-15T07:00:10.870Z,2.90
2023-05-15T07:02:38.560Z,2.85
2023-05-15T07:05:06.976Z,5.20
2023-05-15T07:07:36.302Z,3.67
2023-05-15T07:10:03.967Z,3.55
2023-05-15T07:12:32.768Z,5.05
2023-05-15T07:15:00.455Z,4.50
2023-05-15T07:17:28.171Z,3.97
2023-05-15T07:19:55.908Z,3.78
2023-05-15T07:22:23.547Z,4.55
2023-05-15T07:24:52.607Z,4.40
2023-05-15T07:27:20.277Z,4.03
2023-05-15T07:29:47.932Z,3.15
2023-05-15T07:32:15.581Z,2.50
2023-05-15T07:34:43.403Z,3.28
2023-05-15T07:37:11.100Z,3.42
2023-05-15T07:39:38.799Z,5.30
2023-05-15T07:42:07.998Z,5.72
2023-05-15T07:44:35.659Z,4.70
2023-05-15T07:47:03.582Z,5.65
2023-05-15T07:49:31.593Z,6.07
2023-05-15T07:51:59.276Z,4.10
2023-05-15T07:54:27.198Z,6.22
2023-05-15T07:56:54.901Z,4.35
2023-05-15T07:59:23.982Z,3.63
2023-05-15T08:01:51.646Z,7.50
2023-05-15T08:04:19.420Z,6.13
2023-05-15T08:06:47.243Z,4.38
2023-05-15T08:09:14.901Z,5.85
2023-05-15T08:11:42.551Z,4.10
2023-05-15T08:14:12.416Z,3.65
2023-05-15T08:16:44.014Z,5.97
2023-05-15T08:19:11.766Z,5.05
2023-05-15T08:21:40.801Z,5.45
2023-05-15T08:24:08.661Z,6.28
2023-05-15T08:26:36.337Z,5.63
2023-05-15T08:29:04.175Z,5.22
2023-05-15T08:31:31.878Z,6.28
2023-05-15T08:34:00.940Z,6.57
2023-05-15T08:36:28.696Z,5.13
2023-05-15T08:38:56.412Z,5.70
2023-05-15T08:41:39.882Z,6.25
2023-05-15T08:44:09.684Z,5.53
2023-05-15T08:46:37.569Z,7.10
2023-05-15T08:49:12.581Z,7.25
2023-05-15T08:51:40.463Z,7.60
2023-05-15T08:54:08.584Z,6.15
2023-05-15T08:56:36.517Z,5.68
2023-05-15T08:59:04.780Z,7.18
2023-05-15T09:01:32.826Z,7.28
2023-05-15T09:04:00.731Z,5.72
2023-05-15T09:06:29.918Z,5.38
2023-05-15T09:08:57.702Z,6.30
2023-05-15T09:11:25.548Z,6.03
2023-05-15T09:13:53.272Z,6.78
2023-05-15T09:16:21.704Z,5.63
2023-05-15T09:18:50.693Z,6.70
2023-05-15T09:21:25.288Z,6.10
2023-05-15T09:23:54.435Z,5.22
2023-05-15T09:26:22.592Z,8.13
2023-05-15T09:28:50.410Z,8.27
2023-05-15T09:31:20.202Z,5.22
2023-05-15T09:33:47.918Z,5.47
2023-05-15T09:36:22.512Z,6.68
2023-05-15T09:38:50.217Z,5.15
2023-05-15T09:41:25.780Z,6.13
2023-05-15T09:43:56.126Z,7.70
2023-05-15T09:46:24.147Z,6.28
2023-05-15T09:48:55.440Z,7.60
2023-05-15T09:51:23.198Z,6.70
2023-05-15T09:53:51.611Z,8.07
2023-05-15T09:56:22.004Z,7.03
2023-05-15T09:58:56.156Z,4.75
2023-05-15T10:01:24.292Z,6.20
2023-05-15T10:03:59.026Z,5.57
2023-05-15T10:06:26.723Z,5.63
2023-05-15T10:08:54.843Z,6.35
2023-05-15T10:11:24.441Z,6.78
2023-05-15T10:13:52.134Z,7.28
2023-05-15T10:16:21.297Z,6.47
2023-05-15T10:18:49.654Z,6.55
2023-05-15T10:21:18.391Z,6.63
2023-05-15T10:23:46.600Z,6.47
2023-05-15T10:26:16.982Z,6.97
2023-05-15T10:28:47.285Z,4.95
2023-05-15T10:31:15.085Z,5.88
2023-05-15T10:33:43.026Z,5.43
2023-05-15T10:36:11.323Z,7.03
2023-05-15T10:38:40.021Z,6.95
2023-05-15T10:41:17.370Z,7.95
2023-05-15T10:43:47.350Z,6.82
2023-05-15T10:46:16.020Z,4.60
2023-05-15T10:48:43.875Z,6.60
2023-05-15T10:51:15.859Z,6.45
2023-05-15T10:53:43.791Z,7.82
2023-05-15T10:56:13.867Z,8.07
2023-05-15T10:58:46.374Z,5.40
2023-05-15T11:01:27.320Z,5.88
2023-05-15T11:04:05.708Z,6.57
2023-05-15T11:06:33.837Z,5.97
2023-05-15T11:09:16.353Z,5.63
2023-05-15T11:11:57.656Z,6.20
2023-05-15T11:14:26.062Z,5.95
2023-05-15T11:17:03.942Z,7.32
2023-05-15T11:19:49.372Z,7.85
2023-05-15T11:22:17.912Z,6.95
2023-05-15T11:24:49.764Z,5.53
2023-05-15T11:27:21.357Z,4.55
2023-05-15T11:30:20.563Z,8.07
2023-05-15T11:32:55.458Z,8.68
2023-05-15T11:35:24.157Z,8.18
2023-05-15T11:37:53.897Z,5.13
2023-05-15T11:40:22.656Z,5.85
2023-05-15T11:43:03.421Z,6.78
2023-05-15T11:45:31.992Z,8.02
2023-05-15T11:48:03.590Z,4.38
2023-05-15T11:50:31.704Z,8.45
2023-05-15T11:52:59.439Z,5.00
2023-05-15T11:55:27.371Z,3.70
2023-05-15T11:57:55.081Z,7.28
2023-05-15T12:00:22.959Z,7.07
2023-05-15T12:02:50.981Z,6.22
2023-05-15T12:05:20.073Z,4.70
2023-05-15T12:07:47.794Z,6.47
2023-05-15T12:10:15.485Z,5.82
2023-05-15T12:12:43.859Z,5.22
2023-05-15T12:15:11.858Z,4.82
2023-05-15T12:17:39.816Z,7.28
2023-05-15T12:20:10.605Z,6.20
2023-05-15T12:22:40.173Z,6.35
2023-05-15T12:25:08.398Z,3.55
2023-05-15T12:27:37.212Z,6.72
2023-05-15T12:30:05.766Z,3.88
2023-05-15T12:32:34.662Z,5.38
2023-05-15T12:35:02.996Z,4.18
2023-05-15T12:37:32.580Z,4.80
2023-05-15T12:40:04.916Z,3.50
2023-05-15T12:42:32.641Z,4.53
2023-05-15T12:45:00.291Z,4.00
2023-05-15T12:47:28.418Z,4.07
2023-05-15T12:49:57.130Z,3.63
2023-05-15T12:52:24.940Z,5.75
2023-05-15T12:54:52.625Z,3.85
2023-05-15T12:57:21.718Z,2.63
2023-05-15T12:59:49.584Z,3.65
2023-05-15T13:02:18.364Z,4.90
2023-05-15T13:04:47.491Z,5.38
2023-05-15T13:07:16.641Z,4.43
2023-05-15T13:09:46.281Z,3.13
2023-05-15T13:12:13.954Z,5.13
2023-05-15T13:14:43.099Z,3.65
2023-05-15T13:17:10.839Z,4.50
2023-05-15T13:19:38.501Z,3.05
2023-05-15T13:22:06.382Z,5.15
2023-05-15T13:24:34.030Z,2.38
2023-05-15T13:27:01.677Z,2.78
2023-05-15T13:29:29.351Z,2.83
2023-05-15T13:31:58.422Z,3.42
2023-05-15T13:34:26.142Z,3.03
2023-05-15T13:36:53.956Z,2.05
2023-05-15T13:39:21.626Z,3.35
2023-05-15T13:41:49.288Z,4.38
2023-05-15T13:44:16.980Z,2.47
2023-05-15T13:46:44.710Z,2.65
2023-05-15T13:49:13.771Z,2.22
2023-05-15T13:51:41.426Z,3.25
2023-05-15T13:54:09.101Z,2.63
2023-05-15T13:56:36.751Z,2.13
2023-05-15T13:59:04.413Z,2.17
2023-05-15T14:01:32.089Z,2.63
2023-05-15T14:03:59.791Z,2.55
2023-05-15T14:06:28.872Z,3.50
2023-05-15T14:08:56.543Z,2.63
2023-05-15T14:11:24.206Z,2.65
2023-05-15T14:13:51.870Z,2.45
2023-05-15T14:16:19.532Z,2.90
2023-05-15T14:18:47.285Z,3.58
2023-05-15T14:21:14.985Z,2.42
2023-05-15T14:23:44.378Z,2.15
2023-05-15T14:26:12.150Z,2.58
2023-05-15T14:28:39.798Z,1.77
2023-05-15T14:31:07.538Z,1.63
2023-05-15T14:33:35.252Z,2.63
2023-05-15T14:36:04.539Z,1.77
2023-05-15T14:38:32.483Z,2.17
2023-05-15T14:41:01.564Z,1.17
2023-05-15T14:43:29.970Z,2.17
2023-05-15T14:45:57.624Z,1.65
2023-05-15T14:48:25.282Z,2.67
2023-05-15T14:50:52.917Z,1.98
2023-05-15T14:53:20.582Z,1.48
2023-05-15T14:55:48.292Z,2.00
2023-05-15T14:58:17.348Z,1.83
2023-05-15T15:00:45.128Z,2.47
2023-05-15T15:03:12.826Z,2.20
2023-05-15T15:05:40.504Z,2.67
2023-05-15T15:08:08.768Z,2.03
2023-05-15T15:10:37.172Z,1.73
2023-05-15T15:13:05.268Z,2.28
2023-05-15T15:15:35.202Z,1.73
2023-05-15T15:18:02.892Z,0.52
2023-05-15T15:20:30.679Z,2.30
2023-05-15T15:22:58.360Z,2.05
2023-05-15T15:25:26.066Z,1.92
2023-05-15T15:27:54.064Z,1.73
2023-05-15T15:30:21.810Z,0.70
2023-05-15T15:32:51.168Z,1.25
2023-05-15T15:35:19.175Z,1.27
2023-05-15T15:37:46.916Z,2.42
2023-05-15T15:40:14.980Z,1.77
2023-05-15T15:42:42.601Z,1.95
2023-05-15T15:45:10.500Z,2.63
2023-05-15T15:47:38.222Z,2.83
2023-05-15T15:50:07.802Z,1.98
2023-05-15T15:52:35.434Z,1.92
2023-05-15T15:55:03.431Z,2.17
2023-05-15T15:57:31.451Z,1.52
2023-05-15T15:59:59.129Z,2.20
2023-05-15T16:02:28.161Z,2.17
2023-05-15T16:04:55.953Z,1.98
2023-05-15T16:07:25.027Z,2.25
2023-05-15T16:10:04.268Z,1.83
2023-05-15T16:12:40.502Z,1.80
2023-05-15T16:15:21.433Z,1.65
2023-05-15T16:17:52.521Z,1.48
2023-05-15T16:20:20.909Z,1.70
2023-05-15T16:22:50.067Z,1.50
2023-05-15T16:25:17.956Z,2.05
2023-05-15T16:27:45.643Z,2.38
2023-05-15T16:30:14.050Z,1.92
2023-05-15T16:32:41.779Z,2.20
2023-05-15T16:35:09.965Z,1.90
2023-05-15T16:37:37.681Z,2.08
2023-05-15T16:40:07.563Z,2.65
2023-05-15T16:42:38.761Z,2.70
2023-05-15T16:45:07.208Z,2.42
2023-05-15T16:47:34.946Z,2.50
2023-05-15T16:50:03.607Z,2.80
2023-05-15T16:52:31.321Z,2.30
2023-05-15T16:54:59.009Z,2.28
2023-05-15T16:57:28.033Z,2.00
2023-05-15T16:59:55.717Z,2.55
2023-05-15T17:02:23.449Z,1.85
2023-05-15T17:04:52.772Z,2.58
2023-05-15T17:07:20.438Z,2.78
2023-05-15T17:09:48.087Z,2.10
2023-05-15T17:12:15.740Z,2.38
2023-05-15T17:14:44.835Z,2.35
2023-05-15T17:17:12.495Z,2.30
2023-05-15T17:19:40.159Z,1.95
2023-05-15T17:22:07.803Z,1.88
2023-05-15T17:24:49.225Z,2.08
2023-05-15T17:27:18.346Z,1.88
2023-05-15T17:29:47.900Z,1.90
2023-05-15T17:32:16.681Z,1.15
2023-05-15T17:34:44.806Z,1.77
2023-05-15T17:37:12.560Z,1.20
2023-05-15T17:39:40.204Z,2.03
2023-05-15T17:42:07.936Z,1.73
2023-05-15T17:44:35.654Z,2.30
2023-05-15T17:47:04.823Z,1.55
2023-05-15T17:49:34.159Z,1.25
2023-05-15T17:52:01.954Z,1.63
2023-05-15T17:54:29.712Z,2.10
2023-05-15T17:56:57.360Z,1.50
2023-05-15T17:59:25.073Z,1.67
2023-05-15T18:01:52.826Z,1.58
2023-05-15T18:04:22.154Z,1.20
2023-05-15T18:06:49.918Z,1.33
2023-05-15T18:09:17.644Z,1.75
2023-05-15T18:11:45.306Z,1.75
2023-05-15T18:14:12.922Z,1.77
2023-05-15T18:16:40.856Z,1.77
2023-05-15T18:19:08.584Z,1.80
2023-05-15T18:21:38.146Z,1.65
2023-05-15T18:24:06.548Z,1.52
2023-05-15T18:26:34.245Z,1.45
2023-05-15T18:29:01.994Z,1.42
2023-05-15T18:31:29.798Z,1.33
2023-05-15T18:33:57.596Z,1.48
2023-05-15T18:36:25.864Z,1.17
2023-05-15T18:38:54.966Z,1.20
2023-05-15T18:41:23.031Z,1.55
2023-05-15T18:43:50.769Z,1.70
2023-05-15T18:46:18.416Z,1.48
2023-05-15T18:48:46.166Z,1.35
2023-05-15T18:51:14.221Z,1.52
2023-05-15T18:53:41.954Z,1.80
2023-05-15T18:56:11.029Z,1.45
2023-05-15T18:58:38.691Z,1.02
2023-05-15T19:01:06.378Z,0.70
2023-05-15T19:03:34.136Z,1.98
2023-05-15T19:06:01.953Z,1.00
2023-05-15T19:08:29.613Z,1.25
2023-05-15T19:10:59.162Z,0.90
2023-05-15T19:13:32.642Z,0.68
2023-05-15T19:16:00.449Z,0.52
2023-05-15T19:18:28.097Z,1.15
2023-05-15T19:20:56.719Z,0.75
2023-05-15T19:23:24.782Z,1.30
2023-05-15T19:25:52.671Z,0.90
2023-05-15T19:28:20.688Z,1.27
2023-05-15T19:30:49.846Z,0.93
2023-05-15T19:33:17.544Z,0.75
2023-05-15T19:35:45.372Z,0.80
2023-05-15T19:38:13.292Z,0.95
2023-05-15T19:40:43.915Z,0.80
2023-05-15T19:43:14.109Z,0.85
2023-05-15T19:45:42.616Z,0.82
2023-05-15T19:48:11.746Z,1.08
2023-05-15T19:50:39.868Z,1.13
2023-05-15T19:53:07.559Z,1.33
2023-05-15T19:55:35.269Z,1.02
2023-05-15T19:58:02.941Z,0.60
2023-05-15T20:00:30.786Z,0.60
2023-05-15T20:03:00.334Z,1.25
2023-05-15T20:05:29.617Z,1.10
2023-05-15T20:07:57.322Z,0.50
2023-05-15T20:10:25.310Z,0.30
2023-05-15T20:12:53.112Z,1.15
2023-05-15T20:15:20.787Z,0.80
2023-05-15T20:17:48.506Z,0.60
2023-05-15T20:20:16.651Z,1.35
2023-05-15T20:22:45.908Z,0.98
2023-05-15T20:25:15.106Z,0.38
2023-05-15T20:27:42.767Z,0.60
2023-05-15T20:30:11.017Z,0.68
2023-05-15T20:32:38.823Z,0.73
2023-05-15T20:35:07.053Z,0.43
2023-05-15T20:37:34.743Z,0.80
2023-05-15T20:40:05.280Z,1.15
2023-05-15T20:42:33.663Z,0.30
2023-05-15T20:45:01.332Z,0.60
2023-05-15T20:47:29.045Z,0.80
2023-05-15T20:49:56.707Z,0.52
2023-05-15T20:52:24.434Z,0.50
2023-05-15T20:54:52.025Z,0.80
2023-05-15T20:57:21.244Z,0.47
2023-05-15T20:59:48.882Z,0.73
2023-05-15T21:02:16.734Z,0.40
2023-05-15T21:04:44.631Z,0.95
2023-05-15T21:07:12.292Z,0.57
2023-05-15T21:09:39.914Z,0.73
2023-05-15T21:12:08.013Z,0.22
2023-05-15T21:14:37.101Z,0.82
2023-05-15T21:17:05.096Z,1.00
2023-05-15T21:19:32.844Z,0.98
2023-05-15T21:22:00.543Z,0.88
2023-05-15T21:24:28.197Z,0.50
2023-05-15T21:26:55.934Z,0.75
2023-05-15T21:29:23.585Z,0.75
2023-05-15T21:31:52.615Z,1.10
2023-05-15T21:34:20.263Z,0.85
2023-05-15T21:36:47.930Z,0.40
2023-05-15T21:39:15.573Z,0.20
2023-05-15T21:41:43.222Z,0.60
2023-05-15T21:44:10.861Z,0.50
2023-05-15T21:46:38.569Z,0.40
2023-05-15T21:49:07.794Z,1.27
2023-05-15T21:51:36.131Z,0.85
2023-05-15T21:54:04.098Z,0.88
2023-05-15T21:56:31.911Z,0.60
2023-05-15T21:58:59.567Z,0.90
2023-05-15T22:01:27.263Z,0.90
2023-05-15T22:03:55.061Z,0.50
2023-05-15T22:06:24.295Z,0.52
2023-05-15T22:08:51.950Z,0.50
2023-05-15T22:11:19.742Z,0.47
2023-05-15T22:13:47.448Z,0.63
2023-05-15T22:16:15.942Z,0.30
2023-05-15T22:18:45.825Z,0.95
2023-05-15T22:21:13.570Z,0.70
2023-05-15T22:23:42.858Z,0.57
2023-05-15T22:26:10.715Z,0.75
2023-05-15T22:28:38.398Z,0.50
2023-05-15T22:31:06.363Z,0.73
2023-05-15T22:33:34.053Z,0.75
2023-05-15T22:36:01.766Z,0.47
2023-05-15T22:38:29.509Z,0.50
2023-05-15T22:40:58.549Z,0.65
2023-05-15T22:43:26.351Z,0.75
2023-05-15T22:45:53.992Z,0.82
2023-05-15T22:48:23.087Z,0.40
2023-05-15T22:50:52.223Z,0.80
2023-05-15T22:53:19.887Z,0.95
2023-05-15T22:55:47.927Z,0.75
2023-05-15T22:58:17.052Z,0.95
2023-05-15T23:00:44.780Z,0.65
2023-05-15T23:03:12.545Z,0.30
2023-05-15T23:05:40.485Z,0.50
2023-05-15T23:08:08.188Z,0.82
2023-05-15T23:10:35.909Z,0.55
2023-05-15T23:13:03.596Z,0.40
2023-05-15T23:15:32.700Z,1.10
2023-05-15T23:18:00.447Z,0.40
2023-05-15T23:20:28.527Z,0.47
2023-05-15T23:22:56.484Z,0.57
2023-05-15T23:25:24.170Z,0.50
2023-05-15T23:27:51.847Z,0.77
2023-05-15T23:30:19.589Z,0.50
2023-05-15T23:32:48.918Z,0.70
2023-05-15T23:35:16.695Z,0.57
2023-05-15T23:37:44.557Z,0.95
2023-05-15T23:40:13.083Z,0.50
2023-05-15T23:42:40.765Z,0.57
2023-05-15T23:45:09.143Z,0.52
2023-05-15T23:47:36.869Z,0.40
2023-05-15T23:50:06.797Z,0.50
2023-05-15T23:52:34.671Z,0.55
2023-05-15T23:55:02.337Z,0.47
2023-05-15T23:57:30.028Z,0.80
